createdAt,value
2023-06-02T00:01:34.123Z,1.70
2023-06-02T00:04:05.623Z,1.65
2023-06-02T00:06:34.593Z,1.00
2023-06-02T00:09:06.426Z,2.17
2023-06-02T00:11:36.294Z,1.52
2023-06-02T00:14:04.712Z,1.80
2023-06-02T00:16:35.716Z,2.42
2023-06-02T00:19:02.751Z,2.40
2023-06-02T00:21:29.447Z,1.40
2023-06-02T00:23:56.317Z,1.42
2023-06-02T00:26:23.104Z,1.30
2023-06-02T00:28:50.040Z,1.75
2023-06-02T00:31:16.864Z,1.50
2023-06-02T00:33:43.588Z,1.58
2023-06-02T00:36:10.401Z,1.23
2023-06-02T00:38:37.136Z,1.47
2023-06-02T00:41:03.801Z,1.38
2023-06-02T00:43:30.449Z,1.52
2023-06-02T00:45:57.046Z,1.10
2023-06-02T00:48:23.885Z,1.42
2023-06-02T01:14:21.300Z,1.23
2023-06-02T01:16:50.679Z,1.50
2023-06-02T01:19:21.724Z,1.77
2023-06-02T01:22:00.760Z,2.03
2023-06-02T01:24:37.526Z,1.63
2023-06-02T01:27:07.334Z,2.35
2023-06-02T01:29:36.978Z,1.38
2023-06-02T01:32:22.101Z,2.05
2023-06-02T01:34:54.921Z,1.50
2023-06-02T01:37:24.240Z,1.17
2023-06-02T01:39:51.225Z,1.98
2023-06-02T01:42:18.755Z,1.80
2023-06-02T01:44:46.075Z,1.13
2023-06-02T01:47:12.912Z,1.55
2023-06-02T01:49:39.769Z,1.70
2023-06-02T01:52:06.608Z,1.17
2023-06-02T01:54:34.084Z,1.70
2023-06-02T01:57:00.950Z,1.55
2023-06-02T01:59:27.694Z,1.30
2023-06-02T02:01:54.270Z,1.40
2023-06-02T02:04:21.550Z,1.20
2023-06-02T02:06:50.834Z,1.67
2023-06-02T02:09:17.753Z,1.25
2023-06-02T02:11:44.838Z,1.55
2023-06-02T02:14:14.468Z,1.00
2023-06-02T02:16:45.735Z,1.08
2023-06-02T02:19:17.434Z,1.13
2023-06-02T02:21:44.051Z,1.08
2023-06-02T02:24:10.978Z,1.38
2023-06-02T02:26:40.415Z,1.77
2023-06-02T02:29:07.798Z,1.15
2023-06-02T02:31:34.470Z,1.40
2023-06-02T02:34:02.174Z,0.90
2023-06-02T02:36:28.966Z,1.15
2023-06-02T02:38:56.591Z,1.07
2023-06-02T02:41:23.620Z,0.82
2023-06-02T02:43:51.150Z,1.42
2023-06-02T02:46:18.027Z,0.95
2023-06-02T02:48:46.248Z,1.50
2023-06-02T02:51:12.926Z,1.10
2023-06-02T02:53:39.684Z,1.25
2023-06-02T02:56:08.260Z,1.33
2023-06-02T02:58:37.818Z,1.15
2023-06-02T03:01:05.806Z,1.42
2023-06-02T03:03:33.654Z,1.43
2023-06-02T03:06:02.860Z,1.00
2023-06-02T03:08:29.762Z,0.73
2023-06-02T03:10:56.725Z,0.98
2023-06-02T03:13:23.666Z,1.10
2023-06-02T03:15:50.651Z,1.20
2023-06-02T03:18:17.981Z,1.50
2023-06-02T03:20:47.178Z,1.33
2023-06-02T03:23:13.849Z,1.10
2023-06-02T03:25:41.719Z,1.45
2023-06-02T03:28:08.871Z,1.00
2023-06-02T03:30:35.513Z,1.60
2023-06-02T03:33:02.162Z,0.80
2023-06-02T03:35:28.803Z,1.00
2023-06-02T03:37:55.922Z,1.27
2023-06-02T03:40:22.556Z,1.27
2023-06-02T03:42:49.252Z,1.63
2023-06-02T03:45:15.897Z,1.20
2023-06-02T03:47:42.573Z,1.17
2023-06-02T03:50:09.787Z,1.00
2023-06-02T03:52:36.483Z,1.10
2023-06-02T03:55:03.175Z,1.13
2023-06-02T03:57:29.750Z,1.13
2023-06-02T03:59:56.562Z,1.10
2023-06-02T04:02:23.495Z,1.45
2023-06-02T04:04:50.351Z,1.10
2023-06-02T04:07:16.996Z,1.40
2023-06-02T04:09:43.726Z,0.98
2023-06-02T04:12:10.760Z,0.95
2023-06-02T04:14:38.542Z,1.75
2023-06-02T04:17:06.038Z,1.20
2023-06-02T04:19:32.785Z,1.48
2023-06-02T04:21:59.750Z,1.00
2023-06-02T04:24:26.532Z,1.45
2023-06-02T04:26:53.058Z,1.42
2023-06-02T04:29:21.428Z,1.20
2023-06-02T04:31:51.433Z,1.27
2023-06-02T04:34:18.220Z,1.30
2023-06-02T04:36:44.808Z,1.40
2023-06-02T04:39:11.434Z,1.25
2023-06-02T04:41:38.317Z,1.63
2023-06-02T04:44:05.623Z,1.23
2023-06-02T04:46:36.088Z,1.05
2023-06-02T04:49:08.921Z,1.48
2023-06-02T04:51:36.437Z,2.08
2023-06-02T04:54:03.439Z,1.23
2023-06-02T04:56:31.868Z,1.20
2023-06-02T04:59:00.129Z,0.82
2023-06-02T05:01:28.234Z,0.90
2023-06-02T05:03:55.620Z,0.90
2023-06-02T05:06:22.944Z,1.37
2023-06-02T05:08:51.960Z,1.67
2023-06-02T05:11:18.764Z,1.17
2023-06-02T05:13:46.406Z,1.20
2023-06-02T05:16:13.783Z,1.33
2023-06-02T05:18:40.981Z,1.20
2023-06-02T05:21:10.934Z,1.20
2023-06-02T05:23:41.648Z,0.90
2023-06-02T05:26:08.507Z,1.13
2023-06-02T05:28:35.293Z,1.27
2023-06-02T05:31:04.905Z,0.90
2023-06-02T05:33:33.480Z,0.90
2023-06-02T05:36:00.226Z,1.30
2023-06-02T05:38:27.224Z,1.05
2023-06-02T05:40:54.642Z,1.77
2023-06-02T05:43:21.317Z,1.20
2023-06-02T05:45:53.596Z,1.08
2023-06-02T05:48:23.721Z,1.05
2023-06-02T05:50:52.772Z,1.27
2023-06-02T05:53:19.563Z,1.25
2023-06-02T05:55:46.763Z,1.10
2023-06-02T05:58:13.750Z,0.90
2023-06-02T06:00:43.295Z,1.10
2023-06-02T06:03:12.075Z,1.20
2023-06-02T06:05:39.067Z,1.10
2023-06-02T06:08:06.106Z,1.33
2023-06-02T06:10:33.071Z,0.90
2023-06-02T06:12:59.870Z,1.08
2023-06-02T06:15:29.497Z,0.82
2023-06-02T06:17:59.365Z,1.20
2023-06-02T06:20:27.178Z,1.20
2023-06-02T06:22:54.428Z,1.50
2023-06-02T06:25:21.532Z,1.55
2023-06-02T06:27:48.797Z,1.05
2023-06-02T06:30:15.773Z,1.48
2023-06-02T06:32:50.847Z,1.30
2023-06-02T06:35:19.187Z,1.38
2023-06-02T06:37:45.986Z,1.55
2023-06-02T06:40:16.472Z,1.20
2023-06-02T06:42:46.297Z,1.48
2023-06-02T06:45:13.600Z,1.57
2023-06-02T06:48:15.355Z,1.17
2023-06-02T06:50:45.591Z,1.45
2023-06-02T06:53:14.455Z,1.42
2023-06-02T06:55:43.955Z,1.40
2023-06-02T06:58:13.316Z,1.15
2023-06-02T07:00:52.621Z,1.40
2023-06-02T07:03:19.760Z,1.60
2023-06-02T07:05:49.507Z,1.17
2023-06-02T07:08:31.269Z,1.42
2023-06-02T07:10:58.191Z,1.10
2023-06-02T07:13:32.266Z,1.52
2023-06-02T07:16:01.076Z,1.30
2023-06-02T07:18:34.183Z,1.50
2023-06-02T07:21:09.446Z,1.33
2023-06-02T07:23:42.828Z,1.40
2023-06-02T07:26:10.120Z,1.33
2023-06-02T07:28:47.132Z,2.42
2023-06-02T07:31:19.452Z,0.95
2023-06-02T07:33:53.931Z,1.45
2023-06-02T07:36:21.974Z,1.50
2023-06-02T07:38:50.483Z,1.48
2023-06-02T07:41:17.469Z,1.27
2023-06-02T07:43:45.549Z,1.98
2023-06-02T07:46:15.901Z,1.17
2023-06-02T07:48:42.620Z,1.27
2023-06-02T07:51:23.250Z,1.38
2023-06-02T07:53:56.452Z,1.20
2023-06-02T07:56:24.270Z,1.30
2023-06-02T07:58:51.473Z,1.42
2023-06-02T08:01:21.535Z,1.53
2023-06-02T08:03:49.324Z,1.65
2023-06-02T08:06:16.177Z,1.80
2023-06-02T08:08:46.160Z,1.90
2023-06-02T08:11:13.796Z,1.63
2023-06-02T08:13:41.031Z,1.43
2023-06-02T08:18:40.264Z,1.23
2023-06-02T08:21:08.901Z,2.30
2023-06-02T08:23:38.862Z,1.40
2023-06-02T08:26:05.723Z,1.43
2023-06-02T08:28:35.528Z,1.35
2023-06-02T08:31:03.201Z,1.75
2023-06-02T08:33:37.208Z,1.83
2023-06-02T08:36:07.742Z,1.55
2023-06-02T08:38:42.425Z,1.33
2023-06-02T08:41:13.408Z,2.65
2023-06-02T08:43:42.512Z,1.63
2023-06-02T08:46:16.820Z,1.77
2023-06-02T08:48:48.534Z,1.98
2023-06-02T08:51:23.613Z,2.30
2023-06-02T08:53:51.232Z,1.63
2023-06-02T08:56:18.352Z,1.48
2023-06-02T08:58:50.001Z,1.50
2023-06-02T09:01:58.935Z,2.05
2023-06-02T09:04:26.188Z,1.70
2023-06-02T09:07:32.536Z,1.55
2023-06-02T09:09:59.358Z,1.52
2023-06-02T09:12:29.240Z,1.30
2023-06-02T09:15:11.449Z,2.22
2023-06-02T09:17:38.506Z,2.33
2023-06-02T09:20:13.944Z,1.52
2023-06-02T09:22:57.131Z,1.13
2023-06-02T09:25:27.855Z,2.17
2023-06-02T09:27:59.251Z,1.45
2023-06-02T09:30:32.447Z,1.45
2023-06-02T09:33:02.201Z,1.98
2023-06-02T09:35:35.793Z,1.17
2023-06-02T09:38:08.808Z,1.85
2023-06-02T09:40:39.959Z,1.67
2023-06-02T09:43:10.470Z,1.43
2023-06-02T09:45:52.177Z,2.22
2023-06-02T09:48:24.229Z,2.13
2023-06-02T09:50:51.425Z,2.08
2023-06-02T09:53:19.607Z,1.48
2023-06-02T09:55:52.350Z,1.80
2023-06-02T09:58:20.034Z,1.77
2023-06-02T10:00:46.849Z,2.25
2023-06-02T10:03:17.889Z,1.88
2023-06-02T10:05:59.845Z,2.58
2023-06-02T10:09:17.891Z,2.03
2023-06-02T10:12:09.260Z,1.88
2023-06-02T10:15:15.393Z,2.05
2023-06-02T10:18:13.900Z,1.80
2023-06-02T10:20:57.169Z,1.90
2023-06-02T10:23:53.093Z,1.90
2023-06-02T10:26:50.733Z,1.70
2023-06-02T10:29:18.194Z,1.80
2023-06-02T10:31:48.438Z,2.80
2023-06-02T10:34:40.294Z,2.20
2023-06-02T10:37:19.230Z,1.73
2023-06-02T10:39:46.085Z,2.03
2023-06-02T10:42:14.476Z,2.10
2023-06-02T10:44:42.219Z,2.00
2023-06-02T10:47:21.797Z,2.38
2023-06-02T10:49:56.465Z,2.63
2023-06-02T10:52:26.491Z,1.70
2023-06-02T10:55:17.639Z,2.33
2023-06-02T10:57:55.761Z,2.83
2023-06-02T11:00:37.680Z,1.48
2023-06-02T11:03:06.290Z,1.77
2023-06-02T11:05:34.845Z,2.42
2023-06-02T11:08:16.920Z,2.75
2023-06-02T11:10:54.660Z,2.70
2023-06-02T11:13:23.122Z,2.30
2023-06-02T11:16:09.319Z,2.20
2023-06-02T11:18:59.225Z,2.15
2023-06-02T11:21:31.916Z,2.10
2023-06-02T11:24:26.316Z,2.58
2023-06-02T11:30:07.107Z,2.35
2023-06-02T11:32:43.575Z,2.50
2023-06-02T11:39:05.814Z,2.03
2023-06-02T11:41:37.750Z,1.98
2023-06-02T11:44:21.344Z,3.25
2023-06-02T11:46:48.978Z,1.67
2023-06-02T11:49:28.201Z,2.08
2023-06-02T11:51:58.944Z,2.67
2023-06-02T11:54:29.206Z,2.50
2023-06-02T11:56:57.058Z,2.35
2023-06-02T11:59:26.945Z,3.00
2023-06-02T12:01:55.000Z,1.98
2023-06-02T12:04:33.018Z,2.53
2023-06-02T12:07:06.105Z,2.63
2023-06-02T12:09:35.116Z,2.17
2023-06-02T12:12:11.233Z,2.17
2023-06-02T12:14:43.574Z,2.60
2023-06-02T12:17:10.432Z,2.95
2023-06-02T12:19:43.116Z,2.45
2023-06-02T12:22:12.517Z,2.47
2023-06-02T12:25:21.749Z,2.33
2023-06-02T12:27:51.764Z,2.88
2023-06-02T12:30:38.229Z,3.25
2023-06-02T12:33:22.811Z,2.50
2023-06-02T12:39:02.299Z,2.23
2023-06-02T12:41:42.681Z,2.50
2023-06-02T12:47:07.934Z,3.58
2023-06-02T12:49:40.579Z,2.75
2023-06-02T12:52:21.016Z,2.37
2023-06-02T12:54:54.674Z,2.45
2023-06-02T13:01:48.538Z,3.60
2023-06-02T13:04:18.356Z,3.00
2023-06-02T13:07:12.981Z,2.97
2023-06-02T13:20:31.834Z,2.75
2023-06-02T13:26:50.148Z,2.47
2023-06-02T13:30:04.591Z,2.78
2023-06-02T13:32:39.021Z,2.50
2023-06-02T13:35:06.881Z,2.63
2023-06-02T13:37:35.295Z,2.90
2023-06-02T13:40:03.229Z,2.45
2023-06-02T13:42:31.665Z,2.80
2023-06-02T13:44:59.554Z,2.75
2023-06-02T13:47:26.596Z,2.10
2023-06-02T13:49:54.882Z,2.73
2023-06-02T13:52:23.921Z,3.70
2023-06-02T13:54:51.797Z,3.00
2023-06-02T13:57:22.849Z,2.35
2023-06-02T13:59:49.977Z,2.22
2023-06-02T14:02:18.538Z,2.57
2023-06-02T14:04:46.316Z,2.75
2023-06-02T14:07:13.554Z,2.80
2023-06-02T14:09:42.085Z,3.20
2023-06-02T14:12:08.850Z,2.80
2023-06-02T14:14:35.510Z,2.90
2023-06-02T14:17:02.286Z,2.75
2023-06-02T14:19:29.023Z,3.05
2023-06-02T14:21:55.780Z,3.10
2023-06-02T14:24:22.483Z,2.47
2023-06-02T14:26:51.550Z,2.70
2023-06-02T14:29:18.698Z,3.00
2023-06-02T14:31:45.504Z,3.13
2023-06-02T14:34:12.188Z,2.95
2023-06-02T14:36:38.953Z,3.10
2023-06-02T14:39:06.050Z,3.07
2023-06-02T14:41:33.019Z,2.80
2023-06-02T14:43:59.669Z,3.05
2023-06-02T14:46:26.328Z,3.50
2023-06-02T14:48:53.035Z,3.47
2023-06-02T14:51:19.785Z,3.20
2023-06-02T14:53:46.530Z,2.63
2023-06-02T14:56:16.762Z,3.10
2023-06-02T14:58:43.519Z,2.50
2023-06-02T15:01:12.580Z,2.80
2023-06-02T15:03:42.565Z,2.90
2023-06-02T15:06:10.240Z,2.67
2023-06-02T15:08:37.304Z,2.78
2023-06-02T15:11:03.990Z,2.58
2023-06-02T15:13:32.318Z,2.22
2023-06-02T15:15:59.465Z,3.03
2023-06-02T15:18:34.461Z,2.55
2023-06-02T15:21:06.906Z,2.70
2023-06-02T15:23:33.688Z,2.53
2023-06-02T15:26:00.342Z,2.13
2023-06-02T15:28:29.494Z,2.10
2023-06-02T15:30:56.358Z,2.58
2023-06-02T15:33:23.284Z,2.15
2023-06-02T15:35:50.992Z,2.33
2023-06-02T15:38:20.797Z,1.70
2023-06-02T15:40:47.615Z,2.60
2023-06-02T15:43:14.295Z,1.83
2023-06-02T15:45:40.981Z,1.77
2023-06-02T15:48:07.621Z,1.80
2023-06-02T15:50:34.422Z,2.40
2023-06-02T15:53:01.068Z,1.97
2023-06-02T15:55:27.788Z,1.70
2023-06-02T15:58:00.779Z,1.80
2023-06-02T16:00:27.807Z,1.80
2023-06-02T16:02:54.459Z,1.83
2023-06-02T16:05:21.319Z,2.03
2023-06-02T16:07:47.908Z,1.67
2023-06-02T16:10:16.964Z,1.65
2023-06-02T16:12:43.520Z,1.77
2023-06-02T16:15:10.325Z,1.42
2023-06-02T16:17:36.956Z,1.00
2023-06-02T16:20:04.007Z,1.35
2023-06-02T16:22:31.528Z,1.38
2023-06-02T16:24:58.698Z,1.42
2023-06-02T16:27:25.440Z,1.20
2023-06-02T16:29:52.145Z,1.53
2023-06-02T16:32:19.506Z,1.00
2023-06-02T16:34:46.620Z,1.00
2023-06-02T16:37:13.618Z,0.95
2023-06-02T16:39:40.213Z,1.23
2023-06-02T16:42:08.201Z,0.93
2023-06-02T16:44:34.844Z,1.30
2023-06-02T16:47:04.080Z,0.98
2023-06-02T16:49:31.728Z,0.90
2023-06-02T16:51:59.684Z,1.15
2023-06-02T16:54:26.368Z,1.27
2023-06-02T16:56:53.058Z,1.20
2023-06-02T16:59:19.743Z,0.90
2023-06-02T17:01:47.405Z,0.60
2023-06-02T17:04:16.719Z,1.40
2023-06-02T17:06:43.555Z,1.67
2023-06-02T17:09:10.654Z,1.02
2023-06-02T17:11:38.543Z,1.98
2023-06-02T17:14:05.707Z,0.90
2023-06-02T17:16:32.591Z,1.10
2023-06-02T17:18:59.693Z,1.13
2023-06-02T17:21:28.049Z,1.48
2023-06-02T17:23:55.102Z,1.00
2023-06-02T17:26:22.053Z,0.82
2023-06-02T17:28:52.054Z,1.30
2023-06-02T17:31:18.766Z,1.10
2023-06-02T17:33:45.640Z,1.17
2023-06-02T17:36:13.537Z,1.00
2023-06-02T17:38:45.607Z,1.40
2023-06-02T17:41:14.157Z,1.40
2023-06-02T17:43:40.941Z,1.40
2023-06-02T17:46:07.714Z,1.13
2023-06-02T17:48:36.826Z,1.25
2023-06-02T17:51:04.143Z,0.95
2023-06-02T17:53:31.094Z,1.73
2023-06-02T17:55:57.855Z,1.40
2023-06-02T17:58:25.651Z,1.52
2023-06-02T18:00:52.493Z,1.98
2023-06-02T18:03:21.968Z,1.83
2023-06-02T18:05:55.935Z,1.65
2023-06-02T18:08:33.896Z,1.87
2023-06-02T18:11:00.899Z,1.50
2023-06-02T18:13:40.800Z,1.50
2023-06-02T18:16:12.524Z,2.10
2023-06-02T18:18:46.489Z,1.83
2023-06-02T18:21:13.370Z,2.07
2023-06-02T18:23:43.422Z,1.98
2023-06-02T18:26:10.125Z,2.20
2023-06-02T18:28:37.237Z,2.55
2023-06-02T18:31:04.606Z,1.85
2023-06-02T18:33:33.554Z,1.90
2023-06-02T18:36:04.189Z,1.90
2023-06-02T18:38:34.268Z,1.63
2023-06-02T18:41:06.304Z,2.13
2023-06-02T18:43:37.714Z,1.73
2023-06-02T18:46:05.469Z,1.80
2023-06-02T18:48:35.920Z,2.25
2023-06-02T18:51:04.870Z,2.20
2023-06-02T18:53:40.381Z,1.70
2023-06-02T18:56:07.919Z,1.85
2023-06-02T18:58:35.300Z,2.20
2023-06-02T19:01:03.509Z,1.77
2023-06-02T19:03:35.856Z,2.20
2023-06-02T19:06:09.477Z,2.00
2023-06-02T19:08:41.402Z,2.60
2023-06-02T19:11:10.123Z,2.23
2023-06-02T19:13:38.681Z,3.15
2023-06-02T19:16:09.089Z,3.30
2023-06-02T19:18:40.522Z,2.60
2023-06-02T19:21:11.272Z,1.90
2023-06-02T19:26:33.017Z,2.30
2023-06-02T19:29:05.994Z,2.40
2023-06-02T19:31:46.008Z,2.42
2023-06-02T19:34:17.155Z,1.50
2023-06-02T19:36:45.257Z,2.10
2023-06-02T19:39:20.349Z,1.98
2023-06-02T19:42:02.870Z,1.88
2023-06-02T19:44:47.623Z,1.65
2023-06-02T19:47:33.355Z,2.50
2023-06-02T19:50:03.963Z,2.40
2023-06-02T19:53:01.235Z,2.50
2023-06-02T19:55:40.039Z,2.08
2023-06-02T19:58:14.968Z,2.50
2023-06-02T20:00:45.449Z,2.20
2023-06-02T20:03:34.405Z,2.07
2023-06-02T20:06:12.357Z,2.25
2023-06-02T20:08:47.840Z,2.10
2023-06-02T20:11:14.712Z,1.80
2023-06-02T20:13:48.115Z,1.95
2023-06-02T20:16:18.107Z,2.30
2023-06-02T20:18:44.898Z,1.90
2023-06-02T20:21:19.420Z,2.60
2023-06-02T20:23:47.834Z,2.13
2023-06-02T20:26:20.234Z,1.85
2023-06-02T20:28:47.273Z,1.80
2023-06-02T20:31:14.452Z,2.20
2023-06-02T20:33:44.576Z,2.10
2023-06-02T20:40:34.195Z,1.90
2023-06-02T20:44:16.729Z,3.30
2023-06-02T20:55:10.845Z,2.10
2023-06-02T21:17:38.713Z,2.05
2023-06-02T21:23:02.824Z,1.50
2023-06-02T21:28:55.089Z,2.15
2023-06-02T21:37:51.340Z,1.65
2023-06-02T21:40:40.249Z,1.70
2023-06-02T21:43:54.061Z,1.95
2023-06-02T21:46:52.079Z,1.90
2023-06-02T21:49:25.241Z,1.60
2023-06-02T21:52:57.246Z,1.60
2023-06-02T21:56:00.196Z,1.70
2023-06-02T21:58:42.864Z,1.55
2023-06-02T22:01:32.776Z,1.48
2023-06-02T22:09:44.104Z,1.93
2023-06-02T22:12:38.359Z,1.80
2023-06-02T22:15:11.202Z,1.95
2023-06-02T22:17:42.874Z,1.73
2023-06-02T22:20:19.318Z,1.80
2023-06-02T22:22:51.429Z,1.50
2023-06-02T22:25:39.338Z,1.52
2023-06-02T22:28:15.666Z,1.50
2023-06-02T22:30:45.052Z,1.63
2023-06-02T22:33:26.797Z,1.85
2023-06-02T22:35:53.737Z,1.95
2023-06-02T22:38:34.660Z,2.15
2023-06-02T22:41:01.751Z,1.80
2023-06-02T22:43:43.184Z,1.60
2023-06-02T22:46:10.248Z,1.60
2023-06-02T22:48:41.400Z,1.90
2023-06-02T22:51:14.543Z,2.10
2023-06-02T22:53:59.087Z,1.40
2023-06-02T22:56:30.808Z,1.95
2023-06-02T22:59:12.754Z,1.83
2023-06-02T23:01:44.659Z,2.17
2023-06-02T23:04:14.334Z,1.52
2023-06-02T23:06:50.453Z,2.92
2023-06-02T23:09:19.913Z,1.88
2023-06-02T23:11:51.093Z,1.77
2023-06-02T23:14:29.368Z,1.87
2023-06-02T23:17:01.795Z,2.10
2023-06-02T23:19:31.858Z,1.60
2023-06-02T23:22:06.734Z,1.70
2023-06-02T23:24:41.176Z,1.95
2023-06-02T23:27:11.016Z,1.60
2023-06-02T23:29:43.236Z,2.40
2023-06-02T23:32:10.182Z,1.98
2023-06-02T23:34:39.119Z,2.00
2023-06-02T23:37:06.490Z,1.77
2023-06-02T23:39:35.680Z,1.90
2023-06-02T23:42:08.768Z,1.65
2023-06-02T23:44:37.831Z,3.03
2023-06-02T23:47:07.127Z,1.98
2023-06-02T23:49:39.569Z,2.13
2023-06-02T23:52:06.641Z,2.00
2023-06-02T23:54:36.543Z,1.75
2023-06-02T23:57:03.668Z,2.17
2023-06-02T23:59:32.850Z,2.30
